createdAt,value
2023-02-20T00:02:41.819Z,13.98
2023-02-20T00:05:29.285Z,19.75
2023-02-20T00:08:16.978Z,11.48
2023-02-20T00:11:04.832Z,15.25
2023-02-20T00:13:53.785Z,8.15
2023-02-20T00:16:41.406Z,9.70
2023-02-20T00:19:29.038Z,8.85
2023-02-20T00:22:16.693Z,11.70
2023-02-20T00:25:04.392Z,9.73
2023-02-20T00:27:52.047Z,6.65
2023-02-20T00:30:40.926Z,7.03
2023-02-20T00:33:28.624Z,10.52
2023-02-20T00:36:17.647Z,13.15
2023-02-20T00:39:05.496Z,9.45
2023-02-20T00:41:53.347Z,9.18
2023-02-20T00:44:41.030Z,9.73
2023-02-20T00:47:30.035Z,10.93
2023-02-20T00:50:19.050Z,12.70
2023-02-20T00:53:07.100Z,11.65
2023-02-20T00:55:54.447Z,10.10
2023-02-20T00:58:41.963Z,15.05
2023-02-20T01:01:30.741Z,8.20
2023-02-20T01:04:22.653Z,9.60
2023-02-20T01:07:09.968Z,9.70
2023-02-20T01:09:59.329Z,8.88
2023-02-20T01:12:46.855Z,8.63
2023-02-20T01:15:34.580Z,8.23
2023-02-20T01:18:22.179Z,10.50
2023-02-20T01:21:14.228Z,6.80
2023-02-20T01:24:03.326Z,9.90
2023-02-20T01:26:51.458Z,6.28
2023-02-20T01:29:39.048Z,8.88
2023-02-20T01:32:26.889Z,9.55
2023-02-20T01:35:14.490Z,9.10
2023-02-20T01:38:06.558Z,10.43
2023-02-20T01:40:54.391Z,9.13
2023-02-20T01:43:41.773Z,9.75
2023-02-20T01:46:49.503Z,12.07
2023-02-20T01:49:42.734Z,11.23
2023-02-20T01:52:32.858Z,10.85
2023-02-20T01:55:25.614Z,5.03
2023-02-20T01:58:21.867Z,6.78
2023-02-20T02:01:11.493Z,11.60
2023-02-20T02:04:02.670Z,9.02
2023-02-20T02:06:52.594Z,5.32
2023-02-20T02:09:45.891Z,6.65
2023-02-20T02:12:36.033Z,8.93
2023-02-20T02:15:26.054Z,6.05
2023-02-20T02:18:38.054Z,7.13
2023-02-20T02:22:08.718Z,5.95
2023-02-20T02:25:34.902Z,6.85
2023-02-20T02:28:49.767Z,9.23
2023-02-20T02:32:08.402Z,4.72
2023-02-20T02:35:33.255Z,5.57
2023-02-20T02:38:27.436Z,5.70
2023-02-20T02:41:23.438Z,5.37
2023-02-20T02:44:17.502Z,9.23
2023-02-20T02:47:08.496Z,6.55
2023-02-20T02:50:00.726Z,4.40
2023-02-20T02:52:50.048Z,5.07
2023-02-20T02:55:39.124Z,7.20
2023-02-20T02:58:26.772Z,5.55
2023-02-20T03:01:16.357Z,6.45
2023-02-20T03:04:07.749Z,11.57
2023-02-20T03:07:00.759Z,5.88
2023-02-20T03:09:53.134Z,5.90
2023-02-20T03:12:48.656Z,4.53
2023-02-20T03:15:39.252Z,5.82
2023-02-20T03:18:34.958Z,5.90
2023-02-20T03:21:24.868Z,6.18
2023-02-20T03:24:14.514Z,9.35
2023-02-20T03:27:03.817Z,8.60
2023-02-20T03:29:58.390Z,7.35
2023-02-20T03:33:08.506Z,6.88
2023-02-20T03:36:16.037Z,4.55
2023-02-20T03:39:26.900Z,9.77
2023-02-20T03:42:33.983Z,9.57
2023-02-20T03:45:34.737Z,9.82
2023-02-20T03:48:29.286Z,6.72
2023-02-20T03:51:35.710Z,7.55
2023-02-20T03:54:30.158Z,6.82
2023-02-20T03:57:20.292Z,5.35
2023-02-20T04:00:15.892Z,5.97
2023-02-20T04:03:15.318Z,8.82
2023-02-20T04:06:08.249Z,8.07
2023-02-20T04:09:04.960Z,7.53
2023-02-20T04:11:59.460Z,5.72
2023-02-20T04:14:48.947Z,8.30
2023-02-20T04:17:42.305Z,10.32
2023-02-20T04:20:31.682Z,6.20
2023-02-20T04:23:29.601Z,7.82
2023-02-20T04:26:19.857Z,9.68
2023-02-20T04:29:08.895Z,20.63
2023-02-20T04:31:57.235Z,7.65
2023-02-20T04:34:49.191Z,8.70
2023-02-20T04:37:38.489Z,5.05
2023-02-20T04:40:26.769Z,7.65
2023-02-20T04:43:14.722Z,6.30
2023-02-20T04:46:02.735Z,5.72
2023-02-20T04:48:50.745Z,6.15
2023-02-20T04:51:38.372Z,9.88
2023-02-20T04:54:27.574Z,7.07
2023-02-20T04:57:15.248Z,4.75
2023-02-20T05:00:03.207Z,6.97
2023-02-20T05:02:51.145Z,4.97
2023-02-20T05:05:38.593Z,10.73
2023-02-20T05:08:25.909Z,8.38
2023-02-20T05:11:15.685Z,7.10
2023-02-20T05:14:03.198Z,5.57
2023-02-20T05:16:51.347Z,5.93
2023-02-20T05:19:39.074Z,5.70
2023-02-20T05:22:25.374Z,6.38
2023-02-20T05:25:14.665Z,6.43
2023-02-20T05:28:03.957Z,3.83
2023-02-20T05:30:52.088Z,3.88
2023-02-20T05:33:39.904Z,5.22
2023-02-20T05:36:27.559Z,6.82
2023-02-20T05:39:14.989Z,6.78
2023-02-20T05:42:02.432Z,4.38
2023-02-20T05:44:51.175Z,5.68
2023-02-20T05:47:39.322Z,7.70
2023-02-20T05:50:26.801Z,6.60
2023-02-20T05:53:14.234Z,5.82
2023-02-20T05:56:01.678Z,5.35
2023-02-20T05:58:49.821Z,8.88
2023-02-20T06:01:38.954Z,10.88
2023-02-20T06:04:27.311Z,9.15
2023-02-20T06:07:14.977Z,6.40
2023-02-20T06:10:02.389Z,6.90
2023-02-20T06:12:49.932Z,9.00
2023-02-20T06:15:37.470Z,10.35
2023-02-20T06:18:26.418Z,13.75
2023-02-20T06:21:14.163Z,18.63
2023-02-20T06:24:01.917Z,23.00
2023-02-20T06:26:49.715Z,15.73
2023-02-20T06:29:37.431Z,9.25
2023-02-20T06:32:25.385Z,9.38
2023-02-20T06:35:14.321Z,9.00
2023-02-20T06:38:02.242Z,10.30
2023-02-20T06:40:49.932Z,8.43
2023-02-20T06:43:37.248Z,11.15
2023-02-20T06:46:25.176Z,8.25
2023-02-20T06:49:12.525Z,7.35
2023-02-20T06:52:03.834Z,9.95
2023-02-20T06:54:53.040Z,7.65
2023-02-20T06:57:40.970Z,10.60
2023-02-20T07:00:29.181Z,9.00
2023-02-20T07:03:16.729Z,8.10
2023-02-20T07:06:04.787Z,7.25
2023-02-20T07:08:53.716Z,10.45
2023-02-20T07:11:41.539Z,7.93
2023-02-20T07:14:29.204Z,7.53
2023-02-20T07:17:16.566Z,8.13
2023-02-20T07:20:05.310Z,8.68
2023-02-20T07:22:54.356Z,5.25
2023-02-20T07:25:43.643Z,8.05
2023-02-20T07:28:31.081Z,9.13
2023-02-20T07:31:18.754Z,5.95
2023-02-20T07:34:06.447Z,7.38
2023-02-20T07:36:58.925Z,11.30
2023-02-20T07:39:46.669Z,6.35
2023-02-20T07:42:35.443Z,7.70
2023-02-20T07:45:42.676Z,7.68
2023-02-20T07:48:30.161Z,8.52
2023-02-20T07:51:18.175Z,7.90
2023-02-20T07:54:05.819Z,11.70
2023-02-20T07:56:53.247Z,6.53
2023-02-20T07:59:42.423Z,7.55
2023-02-20T08:02:29.907Z,7.63
2023-02-20T08:05:17.728Z,8.38
2023-02-20T08:08:05.092Z,7.25
2023-02-20T08:11:03.533Z,7.18
2023-02-20T08:13:55.859Z,9.70
2023-02-20T08:16:44.786Z,8.00
2023-02-20T08:19:32.502Z,8.75
2023-02-20T08:22:21.489Z,9.43
2023-02-20T08:25:10.559Z,8.90
2023-02-20T08:27:58.190Z,7.88
2023-02-20T08:30:45.892Z,12.07
2023-02-20T08:33:34.745Z,7.80
2023-02-20T08:36:22.013Z,7.00
2023-02-20T08:39:09.339Z,16.27
2023-02-20T08:41:56.857Z,8.77
2023-02-20T08:44:44.584Z,9.98
2023-02-20T08:47:32.092Z,9.02
2023-02-20T08:50:21.062Z,7.32
2023-02-20T08:53:08.703Z,8.88
2023-02-20T08:55:56.067Z,9.13
2023-02-20T08:58:43.655Z,8.68
2023-02-20T09:02:08.477Z,9.35
2023-02-20T09:04:57.550Z,9.18
2023-02-20T09:07:46.576Z,9.07
2023-02-20T09:10:34.707Z,11.00
2023-02-20T09:13:22.390Z,8.85
2023-02-20T09:16:09.999Z,8.95
2023-02-20T09:18:57.778Z,8.35
2023-02-20T09:21:48.507Z,8.65
2023-02-20T09:24:37.471Z,10.73
2023-02-20T09:27:24.944Z,10.43
2023-02-20T09:30:17.528Z,7.88
2023-02-20T09:33:05.276Z,8.25
2023-02-20T09:35:54.848Z,7.45
2023-02-20T09:38:42.448Z,8.48
2023-02-20T09:41:43.219Z,10.43
2023-02-20T09:44:43.258Z,8.68
2023-02-20T09:47:39.332Z,9.30
2023-02-20T09:50:34.330Z,9.43
2023-02-20T09:53:26.871Z,7.25
2023-02-20T09:56:20.651Z,8.27
2023-02-20T09:59:16.533Z,7.32
2023-02-20T10:02:13.773Z,7.72
2023-02-20T10:05:05.929Z,10.68
2023-02-20T10:07:54.058Z,8.45
2023-02-20T10:10:41.774Z,9.23
2023-02-20T10:13:45.965Z,7.75
2023-02-20T10:16:46.529Z,6.70
2023-02-20T10:19:40.724Z,9.15
2023-02-20T10:22:34.163Z,9.63
2023-02-20T10:25:29.417Z,9.27
2023-02-20T10:28:18.479Z,7.50
2023-02-20T10:31:17.551Z,7.80
2023-02-20T10:34:11.076Z,6.32
2023-02-20T10:37:07.316Z,7.22
2023-02-20T10:40:05.202Z,6.93
2023-02-20T10:43:01.734Z,6.90
2023-02-20T10:45:55.827Z,11.38
2023-02-20T10:48:45.512Z,8.07
2023-02-20T10:51:39.786Z,6.10
2023-02-20T10:54:33.652Z,7.18
2023-02-20T10:57:27.036Z,7.35
2023-02-20T11:00:20.666Z,7.88
2023-02-20T11:03:11.613Z,6.65
2023-02-20T11:06:03.205Z,6.55
2023-02-20T11:08:52.273Z,5.18
2023-02-20T11:11:44.318Z,7.47
2023-02-20T11:14:40.455Z,6.07
2023-02-20T11:17:31.343Z,5.55
2023-02-20T11:20:52.080Z,5.20
2023-02-20T11:23:42.221Z,6.55
2023-02-20T11:26:34.196Z,7.10
2023-02-20T11:29:24.088Z,5.15
2023-02-20T11:32:26.369Z,6.97
2023-02-20T11:35:30.049Z,4.30
2023-02-20T11:38:33.817Z,4.28
2023-02-20T11:41:29.240Z,4.18
2023-02-20T11:44:27.621Z,2.65
2023-02-20T11:47:25.535Z,3.75
2023-02-20T11:50:19.942Z,2.92
2023-02-20T11:53:08.993Z,3.35
2023-02-20T11:56:10.486Z,4.88
2023-02-20T11:59:26.449Z,2.42
2023-02-20T12:02:28.080Z,3.45
2023-02-20T12:05:17.144Z,4.50
2023-02-20T12:08:05.752Z,4.70
2023-02-20T12:10:55.940Z,2.67
2023-02-20T12:13:44.965Z,3.33
2023-02-20T12:16:44.809Z,1.52
2023-02-20T12:19:45.876Z,2.35
2023-02-20T12:22:36.197Z,3.95
2023-02-20T12:25:28.344Z,4.18
2023-02-20T12:28:23.498Z,3.60
2023-02-20T12:31:23.804Z,2.58
2023-02-20T12:34:40.905Z,3.03
2023-02-20T12:37:38.413Z,2.50
2023-02-20T12:40:45.805Z,2.03
2023-02-20T12:43:40.120Z,2.72
2023-02-20T12:46:33.374Z,2.08
2023-02-20T12:49:42.137Z,3.28
2023-02-20T12:52:46.670Z,2.60
2023-02-20T12:55:44.876Z,2.15
2023-02-20T12:58:50.527Z,2.63
2023-02-20T13:01:40.498Z,3.70
2023-02-20T13:04:34.781Z,2.65
2023-02-20T13:07:27.014Z,4.13
2023-02-20T13:10:21.717Z,2.42
2023-02-20T13:13:12.034Z,4.40
2023-02-20T13:16:05.266Z,2.75
2023-02-20T13:19:00.295Z,2.75
2023-02-20T13:21:47.845Z,4.43
2023-02-20T13:24:37.722Z,2.15
2023-02-20T13:27:32.462Z,2.38
2023-02-20T13:30:22.258Z,3.25
2023-02-20T13:33:18.505Z,4.25
2023-02-20T13:36:07.474Z,2.35
2023-02-20T13:39:43.914Z,2.60
2023-02-20T13:42:38.861Z,2.25
2023-02-20T13:45:42.116Z,3.78
2023-02-20T13:48:45.713Z,5.32
2023-02-20T13:51:37.457Z,4.95
2023-02-20T13:54:30.221Z,2.60
2023-02-20T13:57:19.841Z,2.30
2023-02-20T14:00:24.593Z,1.70
2023-02-20T14:03:13.626Z,3.08
2023-02-20T14:06:07.437Z,2.38
2023-02-20T14:09:10.170Z,3.80
2023-02-20T14:12:05.935Z,4.43
2023-02-20T14:14:53.325Z,3.92
2023-02-20T14:17:43.940Z,3.10
2023-02-20T14:20:36.746Z,3.85
2023-02-20T14:23:28.901Z,2.33
2023-02-20T14:26:22.440Z,2.30
2023-02-20T14:29:22.389Z,2.20
2023-02-20T14:32:15.893Z,4.13
2023-02-20T14:35:14.237Z,1.52
2023-02-20T14:38:12.954Z,3.83
2023-02-20T14:41:01.477Z,3.25
2023-02-20T14:43:56.672Z,3.78
2023-02-20T14:46:44.107Z,2.88
2023-02-20T14:49:32.237Z,3.97
2023-02-20T14:52:24.340Z,2.60
2023-02-20T14:55:17.524Z,2.30
2023-02-20T14:58:07.845Z,3.10
2023-02-20T15:00:57.780Z,3.90
2023-02-20T15:03:47.798Z,2.53
2023-02-20T15:06:36.544Z,3.15
2023-02-20T15:09:35.951Z,2.47
2023-02-20T15:12:25.295Z,1.55
2023-02-20T15:15:16.208Z,1.65
2023-02-20T15:18:14.167Z,2.30
2023-02-20T15:21:02.328Z,1.60
2023-02-20T15:23:49.547Z,2.50
2023-02-20T15:26:38.806Z,2.00
2023-02-20T15:29:29.372Z,3.28
2023-02-20T15:32:20.408Z,1.83
2023-02-20T15:35:13.676Z,3.50
2023-02-20T15:38:03.905Z,3.63
2023-02-20T15:40:51.653Z,3.15
2023-02-20T15:43:48.212Z,2.08
2023-02-20T15:46:36.717Z,1.73
2023-02-20T15:49:24.315Z,3.10
2023-02-20T15:52:18.100Z,2.00
2023-02-20T15:55:07.285Z,7.55
2023-02-20T15:57:57.388Z,2.38
2023-02-20T16:00:46.724Z,3.38
2023-02-20T16:03:50.570Z,2.70
2023-02-20T16:06:39.250Z,5.47
2023-02-20T16:09:26.884Z,3.90
2023-02-20T16:12:18.544Z,2.38
2023-02-20T16:15:06.800Z,2.60
2023-02-20T16:17:56.607Z,2.85
2023-02-20T16:20:44.311Z,1.10
2023-02-20T16:23:33.513Z,3.10
2023-02-20T16:26:25.029Z,2.25
2023-02-20T16:29:18.198Z,2.60
2023-02-20T16:32:21.657Z,1.60
2023-02-20T16:35:14.376Z,2.53
2023-02-20T16:38:01.776Z,3.55
2023-02-20T16:40:54.671Z,5.03
2023-02-20T16:43:42.241Z,2.67
2023-02-20T16:46:37.892Z,2.95
2023-02-20T16:49:26.862Z,1.90
2023-02-20T16:52:18.658Z,3.08
2023-02-20T16:55:08.578Z,2.63
2023-02-20T16:57:56.404Z,3.42
2023-02-20T17:00:56.711Z,4.53
2023-02-20T17:03:45.313Z,4.05
2023-02-20T17:06:32.559Z,2.38
2023-02-20T17:09:23.207Z,3.38
2023-02-20T17:12:13.591Z,3.00
2023-02-20T17:15:01.531Z,3.28
2023-02-20T17:17:49.151Z,2.53
2023-02-20T17:20:37.230Z,3.08
2023-02-20T17:23:24.879Z,2.50
2023-02-20T17:26:14.018Z,2.70
2023-02-20T17:29:01.273Z,2.17
2023-02-20T17:31:49.740Z,3.13
2023-02-20T17:34:37.161Z,3.92
2023-02-20T17:37:26.488Z,2.97
2023-02-20T17:40:14.794Z,5.57
2023-02-20T17:43:03.776Z,2.67
2023-02-20T17:45:51.227Z,4.38
2023-02-20T17:48:39.150Z,5.10
2023-02-20T17:51:27.040Z,3.85
2023-02-20T17:54:15.083Z,4.22
2023-02-20T17:57:02.559Z,2.42
2023-02-20T17:59:51.871Z,6.47
2023-02-20T18:02:39.755Z,3.22
2023-02-20T18:05:26.940Z,3.53
2023-02-20T18:08:14.355Z,3.13
2023-02-20T18:11:02.548Z,5.97
2023-02-20T18:13:49.946Z,3.72
2023-02-20T18:16:39.761Z,3.72
2023-02-20T18:19:27.291Z,2.80
2023-02-20T18:22:15.472Z,3.13
2023-02-20T18:25:03.300Z,3.85
2023-02-20T18:27:50.632Z,2.42
2023-02-20T18:30:38.194Z,3.35
2023-02-20T18:33:27.004Z,5.55
2023-02-20T18:36:14.559Z,3.88
2023-02-20T18:39:03.851Z,4.35
2023-02-20T18:41:52.834Z,2.83
2023-02-20T18:44:40.219Z,4.53
2023-02-20T18:47:28.348Z,2.85
2023-02-20T18:50:19.073Z,4.32
2023-02-20T18:53:06.520Z,2.95
2023-02-20T18:55:53.934Z,3.55
2023-02-20T18:58:41.484Z,4.10
2023-02-20T19:01:29.137Z,3.65
2023-02-20T19:04:16.956Z,3.42
2023-02-20T19:07:06.229Z,4.63
2023-02-20T19:09:54.369Z,3.30
2023-02-20T19:12:42.359Z,5.28
2023-02-20T19:15:29.863Z,6.43
2023-02-20T19:18:17.183Z,5.20
2023-02-20T19:21:05.031Z,4.07
2023-02-20T19:23:54.242Z,6.38
2023-02-20T19:26:42.138Z,6.03
2023-02-20T19:29:29.892Z,4.93
2023-02-20T19:32:19.130Z,7.15
2023-02-20T19:35:07.886Z,4.75
2023-02-20T19:37:55.060Z,3.97
2023-02-20T19:40:44.075Z,4.20
2023-02-20T19:43:32.173Z,7.60
2023-02-20T19:46:23.764Z,5.22
2023-02-20T19:49:12.957Z,8.13
2023-02-20T19:52:00.247Z,5.05
2023-02-20T19:54:48.935Z,3.90
2023-02-20T19:57:38.398Z,3.17
2023-02-20T20:00:28.668Z,3.35
2023-02-20T20:03:16.266Z,3.03
2023-02-20T20:06:03.907Z,3.45
2023-02-20T20:09:11.008Z,5.57
2023-02-20T20:11:58.551Z,6.78
2023-02-20T20:14:47.076Z,3.53
2023-02-20T20:17:34.180Z,2.95
2023-02-20T20:20:40.137Z,2.40
2023-02-20T20:23:47.477Z,3.20
2023-02-20T20:29:25.119Z,2.75
2023-02-20T20:32:15.689Z,2.70
2023-02-20T20:35:07.688Z,3.40
2023-02-20T20:37:55.152Z,3.25
2023-02-20T20:40:43.813Z,3.78
2023-02-20T20:43:31.442Z,2.88
2023-02-20T20:46:19.318Z,3.92
2023-02-20T20:49:07.918Z,3.42
2023-02-20T20:51:55.038Z,2.38
2023-02-20T20:54:42.589Z,2.67
2023-02-20T20:57:34.570Z,2.72
2023-02-20T21:00:24.231Z,6.28
2023-02-20T21:03:14.660Z,2.55
2023-02-20T21:06:03.864Z,1.90
2023-02-20T21:08:51.101Z,2.22
2023-02-20T21:11:38.580Z,2.38
2023-02-20T21:14:26.354Z,2.03
2023-02-20T21:17:14.401Z,2.15
2023-02-20T21:20:04.700Z,2.08
2023-02-20T21:22:54.420Z,3.33
2023-02-20T21:25:42.683Z,1.33
2023-02-20T21:28:30.073Z,2.10
2023-02-20T21:31:18.458Z,2.28
2023-02-20T21:34:06.074Z,3.58
2023-02-20T21:36:54.389Z,1.92
2023-02-20T21:39:43.247Z,2.42
2023-02-20T21:42:48.283Z,2.22
2023-02-20T21:45:36.755Z,2.75
2023-02-20T21:48:24.447Z,2.42
2023-02-20T21:51:12.007Z,2.95
2023-02-20T21:53:59.550Z,2.42
2023-02-20T21:56:48.477Z,4.18
2023-02-20T21:59:34.790Z,2.97
2023-02-20T22:02:22.048Z,3.15
2023-02-20T22:05:09.579Z,2.83
2023-02-20T22:08:14.560Z,1.67
2023-02-20T22:11:19.397Z,2.17
2023-02-20T22:14:25.926Z,1.83
2023-02-20T22:17:31.429Z,2.78
2023-02-20T22:20:37.233Z,2.67
2023-02-20T22:23:42.145Z,1.60
2023-02-20T22:26:46.808Z,1.92
2023-02-20T22:29:53.058Z,2.58
2023-02-20T22:32:58.276Z,2.22
2023-02-20T22:36:03.144Z,2.90
2023-02-20T22:39:10.101Z,2.28
2023-02-20T22:42:18.450Z,3.00
2023-02-20T22:45:25.980Z,3.00
2023-02-20T22:51:35.582Z,3.15
2023-02-20T22:54:41.701Z,3.90
2023-02-20T22:57:48.473Z,2.08
2023-02-20T23:00:56.129Z,4.75
2023-02-20T23:04:01.437Z,2.28
2023-02-20T23:07:06.288Z,3.15
2023-02-20T23:10:11.643Z,3.22
2023-02-20T23:13:16.925Z,2.67
2023-02-20T23:16:23.354Z,4.07
2023-02-20T23:19:29.133Z,3.72
2023-02-20T23:22:34.129Z,2.22
2023-02-20T23:25:39.067Z,4.30
2023-02-20T23:28:44.189Z,3.50
2023-02-20T23:31:52.016Z,3.05
2023-02-20T23:34:57.001Z,2.70
2023-02-20T23:38:01.859Z,2.25
2023-02-20T23:41:06.990Z,3.97
2023-02-20T23:44:12.404Z,2.13
2023-02-20T23:47:19.000Z,3.92
2023-02-20T23:50:24.202Z,1.85
2023-02-20T23:53:30.486Z,3.22
2023-02-20T23:56:35.871Z,1.57
2023-02-20T23:59:40.726Z,2.97
